JAL2061 RJFM-RJFT

Flight info

Callsign JAL2061
Flight time 0h 23m
Altitude 20000
Route LALAG Y252 HINAG
Aircraft E170/M-SDE3GILORVW/S

Departure

Time 2026-05-04 06:11
Airport Miyazaki Airport (RJFM)

Arrival

Time 2026-05-04 06:34
Airport Kumamoto Airport (RJFT)
Time Latitude Longitude Altitude Speed Heading
2026-05-04 05:56 31.87363 131.44290 30 ft 0 kts 175°
2026-05-04 06:01 31.87365 131.44290 30 ft 1 kts 176°
2026-05-04 06:01 31.87380 131.44289 30 ft 2 kts 174°
2026-05-04 06:03 31.87457 131.44258 30 ft 0 kts 89°
2026-05-04 06:03 31.87456 131.44249 30 ft 0 kts 84°
2026-05-04 06:05 31.87465 131.44275 30 ft 5 kts 45°
2026-05-04 06:05 31.87509 131.44353 30 ft 8 kts 85°
2026-05-04 06:05 31.87514 131.44437 30 ft 11 kts 85°
2026-05-04 06:06 31.87521 131.44533 30 ft 12 kts 85°
2026-05-04 06:06 31.87528 131.44638 30 ft 13 kts 84°
2026-05-04 06:06 31.87537 131.44756 30 ft 14 kts 85°
2026-05-04 06:06 31.87546 131.44881 30 ft 16 kts 85°
2026-05-04 06:07 31.87556 131.45015 29 ft 17 kts 85°
2026-05-04 06:07 31.87566 131.45160 29 ft 18 kts 85°
2026-05-04 06:07 31.87577 131.45311 29 ft 19 kts 85°
2026-05-04 06:07 31.87587 131.45471 29 ft 20 kts 84°
2026-05-04 06:08 31.87601 131.45642 29 ft 21 kts 85°
2026-05-04 06:08 31.87614 131.45819 29 ft 22 kts 84°
2026-05-04 06:08 31.87627 131.46008 29 ft 23 kts 85°
2026-05-04 06:08 31.87638 131.46117 29 ft 9 kts 70°
2026-05-04 06:09 31.87689 131.46162 29 ft 9 kts
2026-05-04 06:09 31.87757 131.46156 29 ft 9 kts 355°
2026-05-04 06:11 31.87402 131.40797 1985 ft 182 kts 269°
2026-05-04 06:11 31.87290 131.39241 2513 ft 200 kts 270°
2026-05-04 06:13 31.86535 131.25613 8083 ft 247 kts 293°
2026-05-04 06:14 31.96086 131.20197 11977 ft 285 kts 335°
2026-05-04 06:14 31.98000 131.19392 12440 ft 294 kts 333°
2026-05-04 06:15 31.99632 131.18042 12922 ft 293 kts 306°
2026-05-04 06:15 32.00707 131.15990 13568 ft 293 kts 298°
2026-05-04 06:15 32.01671 131.13948 13937 ft 287 kts 298°
2026-05-04 06:15 32.02657 131.11830 14006 ft 306 kts 298°
2026-05-04 06:16 32.03704 131.09567 13998 ft 313 kts 298°
2026-05-04 06:16 32.04745 131.07310 14003 ft 314 kts 297°
2026-05-04 06:16 32.05786 131.05055 13997 ft 314 kts 298°
2026-05-04 06:16 32.06831 131.02782 13998 ft 317 kts 298°
2026-05-04 06:17 32.07876 131.00511 14000 ft 316 kts 298°
2026-05-04 06:17 32.08918 130.98245 14000 ft 314 kts 298°
2026-05-04 06:17 32.09956 130.95985 13995 ft 316 kts 298°
2026-05-04 06:17 32.11005 130.93701 14001 ft 313 kts 298°
2026-05-04 06:18 32.12047 130.91431 14002 ft 315 kts 298°
2026-05-04 06:18 32.13080 130.89175 14007 ft 316 kts 298°
2026-05-04 06:18 32.14107 130.86935 14009 ft 313 kts 298°
2026-05-04 06:20 32.21296 130.71208 14008 ft 304 kts 298°
2026-05-04 06:20 32.22296 130.69017 14006 ft 306 kts 298°
2026-05-04 06:21 32.26260 130.60312 12827 ft 296 kts 300°
2026-05-04 06:21 32.27236 130.58164 12496 ft 296 kts 300°
2026-05-04 06:22 32.28209 130.56024 12169 ft 295 kts 300°
2026-05-04 06:22 32.29209 130.53917 11831 ft 292 kts 307°
2026-05-04 06:25 32.52822 130.56621 7813 ft 260 kts 13°
2026-05-04 06:25 32.54514 130.57277 7517 ft 249 kts 12°
2026-05-04 06:26 32.56114 130.57895 7247 ft 239 kts 12°
2026-05-04 06:26 32.57682 130.58501 6984 ft 230 kts 13°
2026-05-04 06:26 32.59160 130.59071 6735 ft 222 kts 13°
2026-05-04 06:26 32.60601 130.59630 6495 ft 215 kts 12°
2026-05-04 06:27 32.66276 130.61822 5603 ft 204 kts 12°
2026-05-04 06:28 32.67593 130.62334 5345 ft 198 kts 12°
2026-05-04 06:28 32.68884 130.62834 5120 ft 190 kts 12°
2026-05-04 06:28 32.70125 130.63315 4900 ft 184 kts 11°
2026-05-04 06:28 32.71299 130.63773 4749 ft 172 kts 12°
2026-05-04 06:29 32.72419 130.64206 4524 ft 165 kts 12°
2026-05-04 06:29 32.73488 130.64619 4324 ft 159 kts 11°
2026-05-04 06:29 32.74531 130.65024 4161 ft 157 kts 11°
2026-05-04 06:29 32.75552 130.65544 3984 ft 167 kts 34°
2026-05-04 06:30 32.76220 130.66733 3774 ft 181 kts 60°
2026-05-04 06:30 32.76721 130.68105 3525 ft 181 kts 60°
2026-05-04 06:30 32.77250 130.69466 3269 ft 181 kts 58°
2026-05-04 06:30 32.77782 130.70798 3021 ft 178 kts 59°
2026-05-04 06:31 32.78321 130.72136 2776 ft 176 kts 58°
2026-05-04 06:31 32.78838 130.73416 2570 ft 163 kts 57°
2026-05-04 06:31 32.79317 130.74597 2337 ft 157 kts 60°
2026-05-04 06:31 32.79780 130.75740 2091 ft 156 kts 59°
2026-05-04 06:32 32.80254 130.76906 1920 ft 156 kts 58°
2026-05-04 06:33 32.83202 130.84190 608 ft 130 kts 63°
2026-05-04 06:34 32.83540 130.85017 632 ft 85 kts 66°
2026-05-04 06:34 32.83746 130.85532 640 ft 48 kts 63°
2026-05-04 06:34 32.83882 130.85878 644 ft 42 kts 64°
2026-05-04 06:34 32.83870 130.86012 645 ft 16 kts 158°
2026-05-04 06:35 32.83764 130.86031 644 ft 14 kts 221°
2026-05-04 06:36 32.83517 130.85844 642 ft 0 kts 154°